In Rescue
 
Open Full Screen Window  High Contrast Mode
Wind Gusting 00 knots
11
January 17, 2021 12:48 PM CST
Weather Information
Wind Direction
  350 °
Wind Speed
  11 kt (13 mph)
Wind Gust
  00 kt (0 mph)
Altimeter
29.86 in
Visibility
10 SM
Temperature
-06° C
21° F
Dewpoint
-07° C
19° F
Humidity
93%
1hr Rain Fall
00.00 in.
24hr Rain Fall
00.00 in.
Sky Condition
Scattered @ 1,100 ft
VFR

METAR KCKN 171848Z AUTO 35011KT 10SM SCT011 M06/M07 A2986 RMK AO2

FAA Disclaimer: The data displayed is for advisory purposes only and is not to be used for flight planning or operations.